createdAt,value
2023-02-08T00:00:25.748Z,89.66
2023-02-08T00:03:12.385Z,90.27
2023-02-08T00:05:39.156Z,91.02
2023-02-08T00:08:05.772Z,89.37
2023-02-08T00:10:32.322Z,89.67
2023-02-08T00:12:58.684Z,90.21
2023-02-08T00:15:25.214Z,90.52
2023-02-08T00:17:51.880Z,89.84
2023-02-08T00:20:18.483Z,90.04
2023-02-08T00:22:44.788Z,90.06
2023-02-08T00:25:11.302Z,89.57
2023-02-08T00:27:37.564Z,89.84
2023-02-08T00:30:04.714Z,90.75
2023-02-08T00:32:30.964Z,88.80
2023-02-08T00:34:57.460Z,90.18
2023-02-08T00:37:24.177Z,89.69
2023-02-08T00:39:50.671Z,90.61
2023-02-08T00:42:16.910Z,88.68
2023-02-08T00:44:43.382Z,90.57
2023-02-08T00:47:09.618Z,90.42
2023-02-08T00:49:36.105Z,90.78
2023-02-08T00:52:02.314Z,89.97
2023-02-08T00:54:28.824Z,90.48
2023-02-08T00:56:54.924Z,89.40
2023-02-08T00:59:21.742Z,90.19
2023-02-08T01:01:48.370Z,90.14
2023-02-08T01:04:15.248Z,90.40
2023-02-08T01:06:41.412Z,89.83
2023-02-08T01:09:07.816Z,90.56
2023-02-08T01:11:34.046Z,89.79
2023-02-08T01:14:00.538Z,90.25
2023-02-08T01:16:30.122Z,90.27
2023-02-08T01:18:58.718Z,90.60
2023-02-08T01:21:27.951Z,90.37
2023-02-08T01:23:55.809Z,90.76
2023-02-08T01:26:23.237Z,90.79
2023-02-08T01:28:50.545Z,91.85
2023-02-08T01:31:22.476Z,90.56
2023-02-08T01:33:49.208Z,90.96
2023-02-08T01:36:16.458Z,91.11
2023-02-08T01:38:44.219Z,91.25
2023-02-08T01:41:26.149Z,90.96
2023-02-08T01:44:10.979Z,90.76
2023-02-08T01:46:42.758Z,90.53
2023-02-08T01:49:17.986Z,90.55
2023-02-08T01:51:52.738Z,91.54
2023-02-08T01:54:23.324Z,90.97
2023-02-08T01:56:51.959Z,90.52
2023-02-08T01:59:31.213Z,90.60
2023-02-08T02:01:58.964Z,91.27
2023-02-08T02:04:27.915Z,91.18
2023-02-08T02:06:58.768Z,90.75
2023-02-08T02:09:35.212Z,90.89
2023-02-08T02:12:02.060Z,90.69
2023-02-08T02:14:28.710Z,90.70
2023-02-08T02:16:54.898Z,91.25
2023-02-08T02:19:31.241Z,91.19
2023-02-08T02:22:05.868Z,91.33
2023-02-08T02:24:44.214Z,90.55
2023-02-08T02:27:24.547Z,90.63
2023-02-08T02:30:26.559Z,90.23
2023-02-08T02:33:14.511Z,89.58
2023-02-08T02:36:15.387Z,90.22
2023-02-08T02:39:04.003Z,90.49
2023-02-08T02:42:07.441Z,90.33
2023-02-08T02:44:51.560Z,90.14
2023-02-08T02:47:28.679Z,90.04
2023-02-08T02:50:05.134Z,90.13
2023-02-08T02:52:42.705Z,90.87
2023-02-08T02:55:14.897Z,90.23
2023-02-08T02:57:44.268Z,91.09
2023-02-08T03:00:17.040Z,91.18
2023-02-08T03:02:44.379Z,90.67
2023-02-08T03:05:11.778Z,90.14
2023-02-08T03:08:08.243Z,90.61
2023-02-08T03:10:37.347Z,90.35
2023-02-08T03:13:39.648Z,90.67
2023-02-08T03:16:31.886Z,90.94
2023-02-08T03:19:22.054Z,90.23
2023-02-08T03:21:56.738Z,91.08
2023-02-08T03:24:38.447Z,90.29
2023-02-08T03:27:16.992Z,90.55
2023-02-08T03:29:51.175Z,90.75
2023-02-08T03:32:23.133Z,90.68
2023-02-08T03:35:15.088Z,90.76
2023-02-08T03:37:43.896Z,91.23
2023-02-08T03:40:20.222Z,90.23
2023-02-08T03:42:48.242Z,90.36
2023-02-08T03:45:39.603Z,91.09
2023-02-08T03:48:09.041Z,89.89
2023-02-08T03:50:39.532Z,89.93
2023-02-08T03:53:07.445Z,89.66
2023-02-08T03:55:36.944Z,90.49
2023-02-08T03:58:14.692Z,90.28
2023-02-08T04:00:48.108Z,90.50
2023-02-08T04:03:20.141Z,90.44
2023-02-08T04:05:47.183Z,90.80
2023-02-08T04:08:13.336Z,89.90
2023-02-08T04:10:40.088Z,90.47
2023-02-08T04:13:06.590Z,89.74
2023-02-08T04:15:33.370Z,89.87
2023-02-08T04:17:59.564Z,90.24
2023-02-08T04:20:26.035Z,89.81
2023-02-08T04:22:52.202Z,90.34
2023-02-08T04:25:18.693Z,89.94
2023-02-08T04:27:44.986Z,90.23
2023-02-08T04:30:11.805Z,90.79
2023-02-08T04:32:37.942Z,90.39
2023-02-08T04:35:05.017Z,89.47
2023-02-08T04:37:32.397Z,89.69
2023-02-08T04:39:58.964Z,89.65
2023-02-08T04:42:25.542Z,90.95
2023-02-08T04:44:52.077Z,90.39
2023-02-08T04:47:18.215Z,89.77
2023-02-08T04:49:44.607Z,89.15
2023-02-08T04:52:10.732Z,88.84
2023-02-08T04:54:38.796Z,88.89
2023-02-08T04:57:06.850Z,89.41
2023-02-08T04:59:33.522Z,90.00
2023-02-08T05:01:59.978Z,88.91
2023-02-08T05:04:26.730Z,88.78
2023-02-08T05:06:53.522Z,89.07
2023-02-08T05:09:19.992Z,89.12
2023-02-08T05:11:46.246Z,89.48
2023-02-08T05:14:12.725Z,89.53
2023-02-08T05:16:38.913Z,88.58
2023-02-08T05:19:05.402Z,88.71
2023-02-08T05:21:31.535Z,89.04
2023-02-08T05:23:58.073Z,89.21
2023-02-08T05:26:24.299Z,89.49
2023-02-08T05:28:50.743Z,88.64
2023-02-08T05:31:20.645Z,88.84
2023-02-08T05:33:48.837Z,89.08
2023-02-08T05:36:15.969Z,89.03
2023-02-08T05:38:42.473Z,89.63
2023-02-08T05:41:09.051Z,90.20
2023-02-08T05:43:36.234Z,89.88
2023-02-08T05:46:02.889Z,90.21
2023-02-08T05:48:30.554Z,90.24
2023-02-08T05:50:56.789Z,89.76
2023-02-08T05:53:23.189Z,90.47
2023-02-08T05:55:49.549Z,89.69
2023-02-08T05:58:16.771Z,90.14
2023-02-08T06:00:43.539Z,89.40
2023-02-08T06:03:10.430Z,89.35
2023-02-08T06:05:38.406Z,89.46
2023-02-08T06:08:05.117Z,88.72
2023-02-08T06:10:31.249Z,89.17
2023-02-08T06:12:57.956Z,89.36
2023-02-08T06:15:24.500Z,90.25
2023-02-08T06:17:51.041Z,88.31
2023-02-08T06:20:17.342Z,87.91
2023-02-08T06:22:43.849Z,88.61
2023-02-08T06:25:10.029Z,89.52
2023-02-08T06:27:36.534Z,88.47
2023-02-08T06:30:03.617Z,88.65
2023-02-08T06:32:30.783Z,88.81
2023-02-08T06:34:57.071Z,88.75
2023-02-08T06:37:24.098Z,88.74
2023-02-08T06:39:50.657Z,89.68
2023-02-08T06:42:17.570Z,88.35
2023-02-08T06:44:54.447Z,88.81
2023-02-08T06:47:22.948Z,88.28
2023-02-08T06:49:49.503Z,89.99
2023-02-08T06:52:16.733Z,87.30
2023-02-08T06:54:43.115Z,86.95
2023-02-08T06:57:12.446Z,88.21
2023-02-08T06:59:39.892Z,88.13
2023-02-08T07:02:14.814Z,87.79
2023-02-08T07:04:41.291Z,88.26
2023-02-08T07:07:08.685Z,87.33
2023-02-08T07:09:36.223Z,86.92
2023-02-08T07:12:04.421Z,88.89
2023-02-08T07:14:35.904Z,87.96
2023-02-08T07:17:03.182Z,86.89
2023-02-08T07:19:29.874Z,86.75
2023-02-08T07:22:05.095Z,86.48
2023-02-08T07:24:32.429Z,86.77
2023-02-08T07:26:59.319Z,86.07
2023-02-08T07:29:25.618Z,86.47
2023-02-08T07:31:52.436Z,87.10
2023-02-08T07:34:21.126Z,86.74
2023-02-08T07:36:48.720Z,85.46
2023-02-08T07:39:15.061Z,85.65
2023-02-08T07:41:41.546Z,85.37
2023-02-08T07:44:07.800Z,85.19
2023-02-08T07:46:34.632Z,84.04
2023-02-08T07:49:01.076Z,85.27
2023-02-08T07:51:27.636Z,84.54
2023-02-08T07:53:53.902Z,84.50
2023-02-08T07:56:20.568Z,83.91
2023-02-08T07:58:47.038Z,84.98
2023-02-08T08:01:21.905Z,85.21
2023-02-08T08:03:50.701Z,84.76
2023-02-08T08:06:19.896Z,83.87
2023-02-08T08:08:46.840Z,84.47
2023-02-08T08:11:14.736Z,84.86
2023-02-08T08:13:40.872Z,84.93
2023-02-08T08:16:07.860Z,85.33
2023-02-08T08:18:35.259Z,84.71
2023-02-08T08:21:02.780Z,84.58
2023-02-08T08:23:29.618Z,84.94
2023-02-08T08:25:56.520Z,84.74
2023-02-08T08:28:23.118Z,84.17
2023-02-08T08:30:49.870Z,84.70
2023-02-08T08:33:16.203Z,83.86
2023-02-08T08:35:43.636Z,84.46
2023-02-08T08:38:09.956Z,83.48
2023-02-08T08:40:36.587Z,84.13
2023-02-08T08:43:03.050Z,84.45
2023-02-08T08:45:29.876Z,84.42
2023-02-08T08:47:56.423Z,83.68
2023-02-08T08:50:22.985Z,83.41
2023-02-08T08:52:49.277Z,83.83
2023-02-08T08:55:15.838Z,82.69
2023-02-08T08:57:42.092Z,83.93
2023-02-08T09:00:09.273Z,84.58
2023-02-08T09:02:35.504Z,83.56
2023-02-08T09:05:04.694Z,83.47
2023-02-08T09:07:32.216Z,84.65
2023-02-08T09:09:58.736Z,82.92
2023-02-08T09:12:24.965Z,84.48
2023-02-08T09:14:51.446Z,83.47
2023-02-08T09:17:17.774Z,83.88
2023-02-08T09:19:44.676Z,84.12
2023-02-08T09:22:10.899Z,83.00
2023-02-08T09:24:37.577Z,83.78
2023-02-08T09:27:03.886Z,82.95
2023-02-08T09:29:32.045Z,83.49
2023-02-08T09:31:58.809Z,83.29
2023-02-08T09:34:25.467Z,83.86
2023-02-08T09:36:51.693Z,84.07
2023-02-08T09:39:21.299Z,84.17
2023-02-08T09:42:20.770Z,84.33
2023-02-08T09:45:02.736Z,83.53
2023-02-08T09:47:57.485Z,83.65
2023-02-08T09:50:47.800Z,83.42
2023-02-08T09:53:33.554Z,84.11
2023-02-08T09:56:03.937Z,83.85
2023-02-08T09:58:45.128Z,83.84
2023-02-08T10:01:25.336Z,83.42
2023-02-08T10:03:56.945Z,83.03
2023-02-08T10:06:23.532Z,82.96
2023-02-08T10:08:51.728Z,82.28
2023-02-08T10:11:40.176Z,82.87
2023-02-08T10:14:20.089Z,82.43
2023-02-08T10:17:10.493Z,83.17
2023-02-08T10:19:55.703Z,82.71
2023-02-08T10:22:46.980Z,83.20
2023-02-08T10:25:35.487Z,83.06
2023-02-08T10:28:25.672Z,82.95
2023-02-08T10:31:00.985Z,82.91
2023-02-08T10:33:54.516Z,82.74
2023-02-08T10:36:25.118Z,82.54
2023-02-08T10:38:55.037Z,82.38
2023-02-08T10:41:27.588Z,82.39
2023-02-08T10:44:18.898Z,82.44
2023-02-08T10:47:00.585Z,82.17
2023-02-08T10:49:42.092Z,82.30
2023-02-08T10:52:09.087Z,82.02
2023-02-08T10:54:35.679Z,82.11
2023-02-08T10:57:05.714Z,82.40
2023-02-08T10:59:48.732Z,81.92
2023-02-08T11:02:27.303Z,81.28
2023-02-08T11:05:19.474Z,82.52
2023-02-08T11:07:45.806Z,81.72
2023-02-08T11:10:14.238Z,81.79
2023-02-08T11:12:42.875Z,82.26
2023-02-08T11:15:26.662Z,81.99
2023-02-08T11:17:56.698Z,81.94
2023-02-08T11:20:30.911Z,82.00
2023-02-08T11:22:58.716Z,82.23
2023-02-08T11:25:37.770Z,82.24
2023-02-08T11:28:05.333Z,81.76
2023-02-08T11:30:32.677Z,82.07
2023-02-08T11:33:17.812Z,82.77
2023-02-08T11:36:12.557Z,82.54
2023-02-08T11:38:42.303Z,82.69
2023-02-08T11:41:15.926Z,83.30
2023-02-08T11:43:48.500Z,83.06
2023-02-08T11:46:22.895Z,82.72
2023-02-08T11:48:51.061Z,83.08
2023-02-08T11:51:35.648Z,83.15
2023-02-08T11:54:03.854Z,82.93
2023-02-08T11:56:34.086Z,82.71
2023-02-08T11:59:12.117Z,82.36
2023-02-08T12:01:40.846Z,83.07
2023-02-08T12:04:10.383Z,82.04
2023-02-08T12:06:39.958Z,82.03
2023-02-08T12:09:16.712Z,82.39
2023-02-08T12:12:19.228Z,82.80
2023-02-08T12:14:48.540Z,82.74
2023-02-08T12:17:55.521Z,82.94
2023-02-08T12:20:39.279Z,84.33
2023-02-08T12:23:27.137Z,82.57
2023-02-08T12:26:12.105Z,82.74
2023-02-08T12:29:29.173Z,83.42
2023-02-08T12:32:05.726Z,82.23
2023-02-08T12:34:50.624Z,82.67
2023-02-08T12:38:02.738Z,83.00
2023-02-08T12:40:57.327Z,82.67
2023-02-08T12:43:48.332Z,82.75
2023-02-08T12:46:33.733Z,83.49
2023-02-08T12:49:19.172Z,82.12
2023-02-08T12:51:51.753Z,81.77
2023-02-08T12:54:29.976Z,83.38
2023-02-08T12:57:02.434Z,84.57
2023-02-08T12:59:45.026Z,83.97
2023-02-08T13:02:26.115Z,84.68
2023-02-08T13:04:58.840Z,84.67
2023-02-08T13:07:40.388Z,83.64
2023-02-08T13:10:32.535Z,84.65
2023-02-08T13:13:29.350Z,84.07
2023-02-08T13:16:01.218Z,84.13
2023-02-08T13:18:35.092Z,84.13
2023-02-08T13:21:06.958Z,83.39
2023-02-08T13:23:51.683Z,84.17
2023-02-08T13:26:26.841Z,84.48
2023-02-08T13:28:55.934Z,83.58
2023-02-08T13:31:30.609Z,84.27
2023-02-08T13:34:03.088Z,84.03
2023-02-08T13:36:32.895Z,84.41
2023-02-08T13:39:02.105Z,84.57
2023-02-08T13:41:31.233Z,83.81
2023-02-08T13:44:17.240Z,85.11
2023-02-08T13:46:47.142Z,84.47
2023-02-08T13:49:41.795Z,85.02
2023-02-08T13:52:46.416Z,85.22
2023-02-08T13:55:33.754Z,85.64
2023-02-08T13:58:15.084Z,85.77
2023-02-08T14:00:54.290Z,85.37
2023-02-08T14:03:29.499Z,85.59
2023-02-08T14:06:05.598Z,86.14
2023-02-08T14:08:38.341Z,85.53
2023-02-08T14:11:29.860Z,86.09
2023-02-08T14:14:06.257Z,85.48
2023-02-08T14:16:42.369Z,86.00
2023-02-08T14:19:14.612Z,85.75
2023-02-08T14:21:46.930Z,85.58
2023-02-08T14:24:26.555Z,86.06
2023-02-08T14:27:24.553Z,86.23
2023-02-08T14:30:06.444Z,86.33
2023-02-08T14:32:37.390Z,86.26
2023-02-08T14:35:25.505Z,87.09
2023-02-08T14:38:23.410Z,86.66
2023-02-08T14:40:50.783Z,86.63
2023-02-08T14:43:32.089Z,87.22
2023-02-08T14:46:36.346Z,87.42
2023-02-08T14:49:10.437Z,87.10
2023-02-08T14:51:40.575Z,87.46
2023-02-08T14:54:32.357Z,87.58
2023-02-08T14:57:05.913Z,87.51
2023-02-08T14:59:34.708Z,87.93
2023-02-08T15:02:11.627Z,88.42
2023-02-08T15:04:43.420Z,88.33
2023-02-08T15:07:15.846Z,88.84
2023-02-08T15:09:45.182Z,89.35
2023-02-08T15:12:23.499Z,88.39
2023-02-08T15:14:53.370Z,88.99
2023-02-08T15:17:29.256Z,89.41
2023-02-08T15:19:57.001Z,89.66
2023-02-08T15:22:27.218Z,89.79
2023-02-08T15:25:23.299Z,89.71
2023-02-08T15:27:53.461Z,89.68
2023-02-08T15:30:23.807Z,89.18
2023-02-08T15:32:50.400Z,89.44
2023-02-08T15:35:23.428Z,89.99
2023-02-08T15:37:50.565Z,90.57
2023-02-08T15:40:27.277Z,91.18
2023-02-08T15:42:53.931Z,92.31
2023-02-08T15:45:29.718Z,92.41
2023-02-08T15:47:57.350Z,92.00
2023-02-08T15:50:25.038Z,92.85
2023-02-08T15:53:00.878Z,93.82
2023-02-08T15:55:34.197Z,95.41
2023-02-08T15:58:06.573Z,94.37
2023-02-08T16:00:36.441Z,95.46
2023-02-08T16:03:08.715Z,94.20
2023-02-08T16:05:37.415Z,95.36
2023-02-08T16:08:04.394Z,95.44
2023-02-08T16:10:36.310Z,95.45
2023-02-08T16:13:07.591Z,95.54
2023-02-08T16:15:37.054Z,95.37
2023-02-08T16:18:03.853Z,95.18
2023-02-08T16:20:34.189Z,95.57
2023-02-08T16:23:23.054Z,95.63
2023-02-08T16:25:50.422Z,95.61
2023-02-08T16:28:31.617Z,95.42
2023-02-08T16:31:04.423Z,95.00
2023-02-08T16:33:32.387Z,95.43
2023-02-08T16:36:02.814Z,95.13
2023-02-08T16:38:33.099Z,95.61
2023-02-08T16:41:11.612Z,95.57
2023-02-08T16:43:46.549Z,95.44
2023-02-08T16:46:17.505Z,95.13
2023-02-08T16:48:48.898Z,95.68
2023-02-08T16:51:21.146Z,95.65
2023-02-08T16:53:50.078Z,95.51
2023-02-08T16:56:17.229Z,95.99
2023-02-08T16:58:43.684Z,95.50
2023-02-08T17:01:13.855Z,95.62
2023-02-08T17:03:41.128Z,96.24
2023-02-08T17:06:21.180Z,96.06
2023-02-08T17:08:47.725Z,96.33
2023-02-08T17:11:14.338Z,95.80
2023-02-08T17:13:40.566Z,96.25
2023-02-08T17:16:16.328Z,96.22
2023-02-08T17:18:42.849Z,96.63
2023-02-08T17:21:09.618Z,95.83
2023-02-08T17:23:36.117Z,96.38
2023-02-08T17:26:04.330Z,94.92
2023-02-08T17:28:31.314Z,95.54
2023-02-08T17:30:58.030Z,96.41
2023-02-08T17:33:25.611Z,96.31
2023-02-08T17:35:53.269Z,96.44
2023-02-08T17:38:20.649Z,96.77
2023-02-08T17:40:47.566Z,96.55
2023-02-08T17:43:13.955Z,95.99
2023-02-08T17:45:43.121Z,96.35
2023-02-08T17:48:12.667Z,96.31
2023-02-08T17:50:42.240Z,97.02
2023-02-08T17:53:09.223Z,97.48
2023-02-08T17:55:35.794Z,97.49
2023-02-08T17:58:02.163Z,96.78
2023-02-08T18:00:29.020Z,97.61
2023-02-08T18:02:55.572Z,97.09
2023-02-08T18:05:25.250Z,97.30
2023-02-08T18:07:53.258Z,97.03
2023-02-08T18:10:20.549Z,96.81
2023-02-08T18:12:46.826Z,97.40
2023-02-08T18:15:16.288Z,96.96
2023-02-08T18:17:43.911Z,96.13
2023-02-08T18:20:13.621Z,97.32
2023-02-08T18:22:41.016Z,98.49
2023-02-08T18:25:08.898Z,97.66
2023-02-08T18:27:35.410Z,98.06
2023-02-08T18:30:02.737Z,99.11
2023-02-08T18:32:29.689Z,99.29
2023-02-08T18:34:56.473Z,99.02
2023-02-08T18:37:22.841Z,98.56
2023-02-08T18:39:51.584Z,98.07
2023-02-08T18:42:17.932Z,97.79
2023-02-08T18:44:44.980Z,98.50
2023-02-08T18:47:11.568Z,98.75
2023-02-08T18:49:40.111Z,98.81
2023-02-08T18:52:12.673Z,98.94
2023-02-08T18:54:39.637Z,98.75
2023-02-08T18:57:08.859Z,99.27
2023-02-08T18:59:36.610Z,98.89
2023-02-08T19:02:04.221Z,99.00
2023-02-08T19:04:35.194Z,99.13
2023-02-08T19:07:01.548Z,99.57
2023-02-08T19:09:28.359Z,100.00
2023-02-08T19:11:55.332Z,100.00
2023-02-08T19:14:22.218Z,99.54
2023-02-08T19:16:48.520Z,99.68
2023-02-08T19:19:15.552Z,99.85
2023-02-08T19:21:42.122Z,100.00
2023-02-08T19:24:14.146Z,100.00
2023-02-08T19:26:42.416Z,100.00
2023-02-08T19:29:15.066Z,100.00
2023-02-08T19:31:42.346Z,99.61
2023-02-08T19:34:09.847Z,100.00
2023-02-08T19:36:43.536Z,100.00
2023-02-08T19:39:14.723Z,100.00
2023-02-08T19:41:41.940Z,99.96
2023-02-08T19:44:12.356Z,100.00
2023-02-08T19:46:38.912Z,100.00
2023-02-08T19:49:06.589Z,100.00
2023-02-08T19:51:36.361Z,100.00
2023-02-08T19:54:06.567Z,100.00
2023-02-08T19:56:33.838Z,100.00
2023-02-08T19:59:03.562Z,100.00
2023-02-08T20:01:32.343Z,100.00
2023-02-08T20:03:59.831Z,100.00
2023-02-08T20:06:29.365Z,100.00
2023-02-08T20:08:56.130Z,100.00
2023-02-08T20:11:25.331Z,100.00
2023-02-08T20:13:55.708Z,100.00
2023-02-08T20:16:22.940Z,100.00
2023-02-08T20:18:50.413Z,100.00
2023-02-08T20:21:17.939Z,100.00
2023-02-08T20:23:45.539Z,100.00
2023-02-08T20:26:18.422Z,100.00
2023-02-08T20:28:47.769Z,100.00
2023-02-08T20:31:17.171Z,100.00
2023-02-08T20:33:44.011Z,100.00
2023-02-08T20:36:13.564Z,100.00
2023-02-08T20:38:41.039Z,100.00
2023-02-08T20:41:11.079Z,100.00
2023-02-08T20:43:38.066Z,100.00
2023-02-08T20:46:06.303Z,100.00
2023-02-08T20:48:33.557Z,100.00
2023-02-08T20:51:05.065Z,99.68
2023-02-08T20:53:33.706Z,99.96
2023-02-08T20:56:03.766Z,100.00
2023-02-08T20:58:30.677Z,99.64
2023-02-08T21:00:57.038Z,99.67
2023-02-08T21:03:23.754Z,99.53
2023-02-08T21:05:50.349Z,99.54
2023-02-08T21:08:17.194Z,99.07
2023-02-08T21:10:43.613Z,99.42
2023-02-08T21:13:10.520Z,98.71
2023-02-08T21:15:42.288Z,99.36
2023-02-08T21:18:09.825Z,99.53
2023-02-08T21:20:40.218Z,99.50
2023-02-08T21:23:07.314Z,99.16
2023-02-08T21:25:34.229Z,98.61
2023-02-08T21:28:01.547Z,99.01
2023-02-08T21:30:27.994Z,99.44
2023-02-08T21:32:54.471Z,98.97
2023-02-08T21:35:20.772Z,98.48
2023-02-08T21:37:47.759Z,97.88
2023-02-08T21:40:14.402Z,98.82
2023-02-08T21:42:41.134Z,98.42
2023-02-08T21:45:09.589Z,98.81
2023-02-08T21:47:36.757Z,98.64
2023-02-08T21:50:22.220Z,98.28
2023-02-08T21:53:07.624Z,99.24
2023-02-08T21:55:34.309Z,99.13
2023-02-08T21:58:01.357Z,99.15
2023-02-08T22:00:27.717Z,99.31
2023-02-08T22:02:54.538Z,98.93
2023-02-08T22:05:41.149Z,98.46
2023-02-08T22:08:08.028Z,98.26
2023-02-08T22:10:34.585Z,98.15
2023-02-08T22:13:01.718Z,98.85
2023-02-08T22:15:29.403Z,98.65
2023-02-08T22:17:59.168Z,98.93
2023-02-08T22:20:26.804Z,99.10
2023-02-08T22:22:55.233Z,99.32
2023-02-08T22:25:23.169Z,98.93
2023-02-08T22:27:49.798Z,98.57
2023-02-08T22:30:17.341Z,98.74
2023-02-08T22:32:46.161Z,98.99
2023-02-08T22:35:13.846Z,98.72
2023-02-08T22:37:40.982Z,98.67
2023-02-08T22:40:08.442Z,98.65
2023-02-08T22:42:36.990Z,98.78
2023-02-08T22:45:03.668Z,98.75
2023-02-08T22:47:30.247Z,99.07
2023-02-08T22:49:57.784Z,98.59
2023-02-08T22:52:25.465Z,98.86
2023-02-08T22:54:52.337Z,98.49
2023-02-08T22:57:19.623Z,98.83
2023-02-08T22:59:46.899Z,98.96
2023-02-08T23:02:17.429Z,98.97
2023-02-08T23:04:43.864Z,98.74
2023-02-08T23:07:10.410Z,98.92
2023-02-08T23:09:36.639Z,98.47
2023-02-08T23:12:03.341Z,98.84
2023-02-08T23:14:48.500Z,98.57
2023-02-08T23:17:16.757Z,98.56
2023-02-08T23:19:42.924Z,98.91
2023-02-08T23:22:09.511Z,98.77
2023-02-08T23:24:35.637Z,98.45
2023-02-08T23:27:02.265Z,98.15
2023-02-08T23:29:28.470Z,98.18
2023-02-08T23:31:54.978Z,97.95
2023-02-08T23:34:21.185Z,97.90
2023-02-08T23:36:47.753Z,97.53
2023-02-08T23:39:13.853Z,97.46
2023-02-08T23:41:40.449Z,97.89
2023-02-08T23:44:06.678Z,97.78
2023-02-08T23:46:33.308Z,97.78
2023-02-08T23:48:59.466Z,98.11
2023-02-08T23:51:26.073Z,96.97
2023-02-08T23:53:53.890Z,97.45
2023-02-08T23:56:26.348Z,97.19
2023-02-08T23:58:55.096Z,96.97
